Time;durP1;ratioP1;P1;durP2;ratioP2;P2;SDS_P1;SDS_P2;PMS_P1;PMS_P2;Temp;Humidity;BMP_temperature;BMP_pressure;BME280_temperature;BME280_humidity;BME280_pressure;Samples;Min_cycle;Max_cycle;Signal;HPM_P1;HPM_P2
2022/01/10 00:02:26;;;;;;;21.05;7.43;;;-0.10;99.90;;;;;;7201758;32;20587;-78
2022/01/10 00:06:28;;;;;;;14.27;7.30;;;-0.10;99.90;;;;;;7182259;32;20184;-78
2022/01/10 00:10:34;;;;;;;15.00;7.65;;;-0.10;99.90;;;;;;7193703;32;20266;-78
2022/01/10 00:14:36;;;;;;;15.95;8.50;;;-0.10;99.90;;;;;;7196131;32;20917;-78
2022/01/10 00:18:38;;;;;;;18.33;9.00;;;-0.10;99.90;;;;;;7193420;32;20208;-79
2022/01/10 00:22:45;;;;;;;15.57;8.57;;;-0.20;99.90;;;;;;7207508;32;20176;-79
2022/01/10 00:26:47;;;;;;;13.02;8.15;;;-0.20;99.90;;;;;;7211177;32;20220;-78
2022/01/10 00:30:49;;;;;;;17.73;7.82;;;-0.20;99.90;;;;;;7185239;32;20120;-78
2022/01/10 00:34:51;;;;;;;17.35;8.15;;;-0.20;99.90;;;;;;7193784;32;20240;-79
2022/01/10 00:38:53;;;;;;;12.85;7.43;;;-0.20;99.90;;;;;;7192586;32;20116;-78
2022/01/10 00:42:56;;;;;;;15.70;7.07;;;-0.20;99.90;;;;;;7189544;32;20189;-78
2022/01/10 00:46:58;;;;;;;21.55;8.10;;;-0.10;99.90;;;;;;7190643;32;20109;-79
2022/01/10 00:51:00;;;;;;;14.55;7.15;;;-0.20;99.90;;;;;;7207633;32;20109;-79
2022/01/10 00:55:02;;;;;;;19.05;8.32;;;-0.20;99.90;;;;;;7171241;32;20608;-79
2022/01/10 00:59:04;;;;;;;18.48;7.47;;;-0.20;99.90;;;;;;7190389;32;20171;-79
2022/01/10 01:03:06;;;;;;;18.92;7.10;;;-0.30;99.90;;;;;;7194278;32;20852;-79
2022/01/10 01:07:21;;;;;;;15.18;7.45;;;-0.30;99.90;;;;;;7201664;32;20121;-79
2022/01/10 01:11:51;;;;;;;13.18;7.00;;;-0.20;99.90;;;;;;7207164;32;20149;-79
2022/01/10 01:20:27;;;;;;;17.33;7.60;;;-0.20;99.90;;;;;;7190250;32;20151;-79
2022/01/10 01:24:27;;;;;;;15.23;7.82;;;-0.30;99.90;;;;;;7193980;32;20117;-79
2022/01/10 01:28:31;;;;;;;18.33;7.90;;;-0.30;99.90;;;;;;7176067;32;20157;-79
2022/01/10 01:32:32;;;;;;;16.83;8.63;;;-0.40;99.90;;;;;;7170070;32;20549;-79
2022/01/10 01:36:35;;;;;;;16.90;7.30;;;-0.40;99.90;;;;;;7183560;32;20575;-79
2022/01/10 01:40:44;;;;;;;16.98;8.02;;;-0.40;99.90;;;;;;7183263;32;20121;-79
2022/01/10 01:44:49;;;;;;;13.93;7.62;;;-0.40;99.90;;;;;;7182794;32;20215;-79
2022/01/10 01:48:52;;;;;;;21.23;8.07;;;-0.40;99.90;;;;;;7198307;32;20326;-79
2022/01/10 01:52:54;;;;;;;18.67;7.55;;;-0.40;99.90;;;;;;7185348;32;20259;-78
2022/01/10 01:56:56;;;;;;;18.08;7.60;;;-0.40;99.90;;;;;;7171360;32;20192;-79
2022/01/10 02:00:58;;;;;;;17.15;8.13;;;-0.40;99.90;;;;;;7182232;33;20181;-78
2022/01/10 02:05:00;;;;;;;16.75;8.43;;;-0.50;99.90;;;;;;7183467;33;20125;-79
2022/01/10 02:09:03;;;;;;;14.98;7.43;;;-0.40;99.90;;;;;;7192545;33;20244;-78
2022/01/10 02:13:04;;;;;;;16.98;8.05;;;-0.40;99.90;;;;;;7193113;32;20130;-78
2022/01/10 02:17:06;;;;;;;15.75;7.72;;;-0.40;99.90;;;;;;7174310;33;20117;-78
2022/01/10 02:21:09;;;;;;;12.50;7.43;;;-0.30;99.90;;;;;;7182334;33;20124;-77
2022/01/10 02:25:11;;;;;;;17.50;7.70;;;-0.20;99.90;;;;;;7196554;33;20238;-79
2022/01/10 02:29:12;;;;;;;14.38;7.95;;;-0.20;99.90;;;;;;7197287;32;20296;-78
2022/01/10 02:33:14;;;;;;;20.27;8.35;;;-0.20;99.90;;;;;;7192078;32;20136;-78
2022/01/10 02:37:30;;;;;;;21.62;8.52;;;-0.20;99.90;;;;;;7181600;33;20199;-78
2022/01/10 02:41:35;;;;;;;18.98;8.40;;;0.00;99.90;;;;;;7177129;32;20137;-79
2022/01/10 02:45:37;;;;;;;16.73;8.00;;;0.00;99.90;;;;;;7181963;33;20393;-78
2022/01/10 02:49:39;;;;;;;20.02;9.15;;;0.10;99.90;;;;;;7197178;33;20129;-78
2022/01/10 02:53:41;;;;;;;23.08;9.05;;;0.10;99.90;;;;;;7178458;33;20219;-78
2022/01/10 02:57:43;;;;;;;19.37;9.57;;;0.30;99.90;;;;;;7195732;33;20137;-78
2022/01/10 03:01:46;;;;;;;22.73;10.07;;;0.30;99.90;;;;;;7198817;33;20986;-77
2022/01/10 03:05:48;;;;;;;19.65;9.05;;;0.40;99.90;;;;;;7195049;33;20530;-77
2022/01/10 03:09:51;;;;;;;21.12;9.52;;;0.40;99.90;;;;;;7183580;32;20235;-78
2022/01/10 03:13:53;;;;;;;20.02;9.75;;;0.40;99.90;;;;;;7186127;32;20109;-78
2022/01/10 03:17:55;;;;;;;19.17;9.02;;;0.40;99.90;;;;;;7180706;32;20534;-78
2022/01/10 03:21:56;;;;;;;24.50;9.10;;;0.40;99.90;;;;;;7201919;32;20133;-78
2022/01/10 03:25:58;;;;;;;20.88;9.27;;;0.30;99.90;;;;;;7184224;32;20322;-77
2022/01/10 03:30:00;;;;;;;18.98;8.85;;;0.30;99.90;;;;;;7188278;32;20117;-78
2022/01/10 03:34:02;;;;;;;20.35;9.05;;;0.30;99.90;;;;;;7174798;32;20148;-78
2022/01/10 03:38:05;;;;;;;19.65;9.73;;;0.30;99.90;;;;;;7188363;32;20629;-78
2022/01/10 03:42:07;;;;;;;24.12;10.05;;;0.30;99.90;;;;;;7190749;32;20188;-77
2022/01/10 03:46:08;;;;;;;21.87;10.02;;;0.30;99.90;;;;;;7198638;32;20182;-78
2022/01/10 03:50:10;;;;;;;24.65;10.75;;;0.40;99.90;;;;;;7181180;32;20125;-77
2022/01/10 03:54:12;;;;;;;18.35;10.68;;;0.50;99.90;;;;;;7196851;32;20280;-78
2022/01/10 03:58:14;;;;;;;24.33;12.68;;;0.40;99.90;;;;;;7201664;32;20137;-78
2022/01/10 04:02:16;;;;;;;18.73;11.30;;;0.40;99.90;;;;;;7182250;32;20308;-78
2022/01/10 04:06:19;;;;;;;20.00;11.38;;;0.30;99.90;;;;;;7182009;32;20190;-78
2022/01/10 04:10:20;;;;;;;20.42;9.27;;;0.20;99.90;;;;;;7196990;32;20216;-77
2022/01/10 04:14:22;;;;;;;19.40;8.93;;;0.20;99.90;;;;;;7193367;32;20204;-77
2022/01/10 04:18:24;;;;;;;20.73;8.70;;;0.10;99.90;;;;;;7201494;32;20106;-78
2022/01/10 04:22:26;;;;;;;18.10;8.57;;;0.00;99.90;;;;;;7175498;32;20215;-77
2022/01/10 04:26:29;;;;;;;16.98;8.20;;;0.00;99.90;;;;;;7193768;32;20176;-78
2022/01/10 04:30:31;;;;;;;18.02;8.75;;;-0.10;99.90;;;;;;7204370;32;20148;-77
2022/01/10 04:34:33;;;;;;;19.50;9.60;;;-0.20;99.90;;;;;;7190424;32;20227;-77
2022/01/10 04:38:34;;;;;;;18.73;9.02;;;-0.30;99.90;;;;;;7205604;32;20754;-77
2022/01/10 04:42:37;;;;;;;17.37;9.35;;;-0.30;99.90;;;;;;7192316;32;20198;-77
2022/01/10 04:46:39;;;;;;;19.85;8.55;;;-0.30;99.90;;;;;;7191817;32;20173;-78
2022/01/10 04:51:24;;;;;;;17.50;8.95;;;-0.40;99.90;;;;;;7182485;32;20212;-77
2022/01/10 04:55:06;;;;;;;18.05;8.68;;;-0.30;99.90;;;;;;7184193;32;20167;-77
2022/01/10 04:59:08;;;;;;;15.32;8.75;;;-0.30;99.90;;;;;;7183046;32;20109;-78
2022/01/10 05:03:10;;;;;;;18.37;8.43;;;-0.20;99.90;;;;;;7181036;32;20265;-78
2022/01/10 05:07:12;;;;;;;18.08;8.70;;;0.00;99.90;;;;;;7180605;32;20227;-78
2022/01/10 05:11:14;;;;;;;20.33;9.88;;;-0.10;99.90;;;;;;7202439;32;20813;-78
2022/01/10 05:15:15;;;;;;;19.67;9.90;;;0.10;99.90;;;;;;7183748;32;20192;-80
2022/01/10 05:19:18;;;;;;;18.50;9.82;;;0.00;99.90;;;;;;7191036;32;20331;-78
2022/01/10 05:23:20;;;;;;;19.08;10.57;;;0.20;99.90;;;;;;7197500;32;20220;-78
2022/01/10 05:27:22;;;;;;;17.95;9.73;;;0.20;99.90;;;;;;7186293;32;20165;-78
2022/01/10 05:31:24;;;;;;;25.62;9.00;;;0.30;99.90;;;;;;7203436;32;20147;-78
2022/01/10 05:35:26;;;;;;;22.48;10.10;;;0.30;99.90;;;;;;7195224;32;20614;-78
2022/01/10 05:39:28;;;;;;;20.02;9.65;;;0.30;99.90;;;;;;7184047;32;21175;-78
2022/01/10 05:43:30;;;;;;;20.60;10.73;;;0.20;99.90;;;;;;7179709;32;20192;-77
2022/01/10 05:47:39;;;;;;;25.33;10.52;;;0.10;99.90;;;;;;7172557;32;20121;-78
2022/01/10 05:51:41;;;;;;;20.85;10.32;;;0.10;99.90;;;;;;7179184;32;20167;-78
2022/01/10 05:55:42;;;;;;;17.00;9.95;;;0.00;99.90;;;;;;7181747;32;20286;-78
2022/01/10 05:59:44;;;;;;;22.55;9.73;;;-0.10;99.90;;;;;;7187004;33;20302;-78
2022/01/10 06:03:47;;;;;;;18.85;10.32;;;-0.20;99.90;;;;;;7190642;33;20160;-79
2022/01/10 06:07:48;;;;;;;19.83;10.00;;;-0.30;99.90;;;;;;7185900;33;20243;-78
2022/01/10 06:11:50;;;;;;;23.73;10.65;;;-0.30;99.90;;;;;;7213014;32;20244;-80
2022/01/10 06:15:52;;;;;;;27.70;11.95;;;-0.40;99.90;;;;;;7201351;32;20205;-78
2022/01/10 06:19:54;;;;;;;22.83;11.90;;;-0.40;99.90;;;;;;7187907;33;20693;-77
2022/01/10 06:23:56;;;;;;;24.83;11.63;;;-0.40;99.90;;;;;;7188976;33;20171;-77
2022/01/10 06:27:58;;;;;;;24.20;10.75;;;-0.40;99.90;;;;;;7186326;33;20818;-77
2022/01/10 06:32:00;;;;;;;25.40;11.57;;;-0.50;99.90;;;;;;7200547;33;20216;-77
2022/01/10 06:36:02;;;;;;;49.55;24.48;;;-0.60;99.90;;;;;;7206296;33;20201;-78
2022/01/10 06:40:05;;;;;;;26.02;13.57;;;-0.60;99.90;;;;;;7209159;32;20181;-78
2022/01/10 06:44:07;;;;;;;20.60;11.07;;;-0.50;99.90;;;;;;7198069;32;20561;-78
2022/01/10 06:48:09;;;;;;;25.30;11.95;;;-0.60;99.90;;;;;;7196216;32;20546;-78
2022/01/10 06:52:11;;;;;;;23.50;10.13;;;-0.60;99.90;;;;;;7197922;32;20156;-78
2022/01/10 06:56:13;;;;;;;19.58;10.05;;;-0.70;99.90;;;;;;7196618;32;20256;-78
2022/01/10 07:00:15;;;;;;;18.25;9.40;;;-0.70;99.90;;;;;;7213985;32;20180;-78
2022/01/10 07:04:17;;;;;;;23.45;10.73;;;-0.70;99.90;;;;;;7199001;32;20523;-78
2022/01/10 07:08:19;;;;;;;32.00;15.50;;;-0.80;99.90;;;;;;7213072;32;20581;-78
2022/01/10 07:12:21;;;;;;;24.95;11.90;;;-0.80;99.90;;;;;;7192211;32;20526;-78
2022/01/10 07:16:23;;;;;;;25.00;11.23;;;-0.80;99.90;;;;;;7184988;32;20228;-78
2022/01/10 07:20:27;;;;;;;19.95;11.23;;;-0.80;99.90;;;;;;7203427;32;20117;-77
2022/01/10 07:24:29;;;;;;;20.23;11.50;;;-0.80;99.90;;;;;;7200468;32;20336;-78
2022/01/10 07:28:30;;;;;;;20.23;11.00;;;-0.80;99.90;;;;;;7196222;32;20203;-78
2022/01/10 07:32:32;;;;;;;22.77;11.50;;;-0.80;99.90;;;;;;7193637;32;20204;-78
2022/01/10 07:36:35;;;;;;;20.25;10.48;;;-0.90;99.90;;;;;;7202454;32;20180;-78
2022/01/10 07:40:37;;;;;;;21.10;10.50;;;-0.80;99.90;;;;;;7211866;32;20116;-77
2022/01/10 07:44:39;;;;;;;20.30;10.85;;;-0.90;99.90;;;;;;7188007;32;20149;-78
2022/01/10 07:48:43;;;;;;;22.67;10.88;;;-0.90;99.90;;;;;;7200978;32;20121;-78
2022/01/10 07:52:45;;;;;;;23.20;12.37;;;-0.80;99.90;;;;;;7197825;32;20145;-79
2022/01/10 07:56:47;;;;;;;25.73;13.52;;;-0.80;99.90;;;;;;7193259;32;20181;-78
2022/01/10 08:00:49;;;;;;;27.13;13.35;;;-0.80;99.90;;;;;;7193066;32;20171;-78
2022/01/10 08:04:51;;;;;;;22.65;13.35;;;-0.70;99.90;;;;;;7195855;32;20689;-78
2022/01/10 08:08:53;;;;;;;25.55;12.75;;;-0.70;99.90;;;;;;7196082;32;20226;-78
2022/01/10 08:12:55;;;;;;;29.63;12.85;;;-0.70;99.90;;;;;;7209882;32;20530;-78
2022/01/10 08:16:58;;;;;;;23.92;11.43;;;-0.60;99.90;;;;;;7190324;32;20118;-78
2022/01/10 08:21:00;;;;;;;24.15;10.65;;;-0.70;99.90;;;;;;7196171;32;20278;-78
2022/01/10 08:25:02;;;;;;;24.98;10.65;;;-0.60;99.90;;;;;;7180178;32;20548;-78
2022/01/10 08:29:04;;;;;;;26.58;10.18;;;-0.60;99.90;;;;;;7196827;32;20184;-77
2022/01/10 08:33:06;;;;;;;22.25;10.73;;;-0.50;99.90;;;;;;7203259;32;20508;-79
2022/01/10 08:37:08;;;;;;;20.08;10.43;;;-0.50;99.90;;;;;;7195350;32;20132;-78
2022/01/10 08:41:10;;;;;;;31.10;10.45;;;-0.40;99.90;;;;;;7184063;32;20145;-78
2022/01/10 08:45:12;;;;;;;22.67;11.02;;;-0.40;99.90;;;;;;7193467;32;20136;-78
2022/01/10 08:49:14;;;;;;;19.58;10.23;;;-0.30;99.90;;;;;;7192109;32;20285;-78
2022/01/10 08:53:16;;;;;;;21.85;10.00;;;-0.30;99.90;;;;;;7173435;32;20560;-79
2022/01/10 08:57:18;;;;;;;21.30;9.80;;;-0.20;99.90;;;;;;7182786;32;20167;-77
2022/01/10 09:01:21;;;;;;;22.55;10.02;;;-0.20;99.90;;;;;;7193629;32;20175;-78
2022/01/10 09:05:23;;;;;;;44.63;21.65;;;-0.20;99.90;;;;;;7177344;32;20216;-78
2022/01/10 09:09:25;;;;;;;36.58;18.98;;;-0.10;99.90;;;;;;7181095;32;20121;-78
2022/01/10 09:13:27;;;;;;;29.48;15.80;;;0.00;99.90;;;;;;7205188;32;20131;-78
2022/01/10 09:17:29;;;;;;;27.40;14.00;;;0.00;99.90;;;;;;7201338;32;20118;-78
2022/01/10 09:21:32;;;;;;;21.50;11.65;;;0.10;99.90;;;;;;7182138;32;20144;-79
2022/01/10 09:25:34;;;;;;;25.00;10.75;;;0.10;99.90;;;;;;7189793;32;20250;-78
2022/01/10 09:29:35;;;;;;;26.52;11.02;;;0.10;99.90;;;;;;7181490;32;20755;-77
2022/01/10 09:33:37;;;;;;;22.87;10.80;;;0.20;99.90;;;;;;7207108;32;20506;-78
2022/01/10 09:37:39;;;;;;;20.60;10.63;;;0.30;99.90;;;;;;7190131;32;20109;-79
2022/01/10 09:41:41;;;;;;;23.38;11.75;;;0.40;99.90;;;;;;7196865;32;20125;-78
2022/01/10 09:45:45;;;;;;;22.80;12.00;;;0.60;99.90;;;;;;7191837;32;20220;-77
2022/01/10 09:49:46;;;;;;;25.62;12.75;;;0.70;99.90;;;;;;7194541;32;20179;-78
2022/01/10 09:53:49;;;;;;;27.48;12.95;;;0.90;99.90;;;;;;7180717;32;20113;-77
2022/01/10 09:57:51;;;;;;;29.87;13.95;;;1.20;99.90;;;;;;7190287;32;20892;-78
2022/01/10 10:01:53;;;;;;;26.67;13.15;;;1.30;99.90;;;;;;7198714;33;20109;-77
2022/01/10 10:05:57;;;;;;;24.77;12.55;;;1.50;99.90;;;;;;7198564;33;20823;-79
2022/01/10 10:10:07;;;;;;;29.90;13.75;;;1.60;99.90;;;;;;7213006;33;20200;-82
2022/01/10 10:14:11;;;;;;;24.92;12.32;;;1.80;99.90;;;;;;7202899;33;20159;-77
2022/01/10 10:18:16;;;;;;;29.80;13.23;;;1.90;99.90;;;;;;7195431;32;20261;-78
2022/01/10 10:22:18;;;;;;;28.33;13.05;;;2.00;99.90;;;;;;7201605;32;20117;-81
2022/01/10 10:26:24;;;;;;;29.30;12.48;;;2.00;99.90;;;;;;7194590;32;20193;-76
2022/01/10 10:30:29;;;;;;;25.80;12.53;;;2.00;99.90;;;;;;7213921;32;20600;-80
2022/01/10 10:34:33;;;;;;;30.20;12.15;;;2.10;99.90;;;;;;7192552;32;20165;-78
2022/01/10 10:38:35;;;;;;;23.77;11.93;;;2.20;99.90;;;;;;7201198;32;20509;-77
2022/01/10 10:42:39;;;;;;;26.60;12.13;;;2.30;99.90;;;;;;7186295;32;20116;-82
2022/01/10 10:46:41;;;;;;;30.35;13.40;;;2.50;99.90;;;;;;7192266;32;20110;-77
2022/01/10 10:50:47;;;;;;;32.40;12.70;;;2.70;99.90;;;;;;7184819;32;20169;-79
2022/01/10 10:54:49;;;;;;;22.53;12.07;;;2.70;99.90;;;;;;7192513;32;20625;-76
2022/01/10 10:58:52;;;;;;;28.50;12.32;;;2.90;99.90;;;;;;7214149;32;20796;-77
2022/01/10 11:02:54;;;;;;;29.67;12.55;;;3.00;99.90;;;;;;7193912;32;20208;-82
2022/01/10 11:06:58;;;;;;;34.05;12.32;;;3.10;99.90;;;;;;7191903;32;20113;-77
2022/01/10 11:11:01;;;;;;;31.40;13.98;;;3.30;99.90;;;;;;7196457;32;20565;-81
2022/01/10 11:15:04;;;;;;;28.90;13.15;;;3.30;99.90;;;;;;7192732;32;20799;-77
2022/01/10 11:19:15;;;;;;;24.27;12.55;;;3.30;99.90;;;;;;7209516;32;20113;-76
2022/01/10 11:23:17;;;;;;;30.58;14.25;;;3.40;99.90;;;;;;7194560;32;20224;-78
2022/01/10 11:27:34;;;;;;;34.60;13.98;;;3.50;99.90;;;;;;7198323;32;20129;-77
2022/01/10 11:31:41;;;;;;;32.80;14.50;;;3.60;99.90;;;;;;7209081;32;20599;-77
2022/01/10 11:36:05;;;;;;;32.90;14.03;;;3.80;99.90;;;;;;7202877;32;20117;-81
2022/01/10 11:40:08;;;;;;;28.87;13.62;;;3.90;99.90;;;;;;7192393;32;20257;-82
2022/01/10 11:44:12;;;;;;;37.38;14.40;;;4.00;99.90;;;;;;7196312;32;20149;-75
2022/01/10 11:48:14;;;;;;;38.17;13.70;;;4.00;99.90;;;;;;7181461;32;20227;-77
2022/01/10 11:52:28;;;;;;;30.92;13.80;;;4.10;99.90;;;;;;7196149;32;20117;-77
2022/01/10 11:56:33;;;;;;;28.08;13.60;;;4.00;99.90;;;;;;7200802;32;20496;-78
2022/01/10 12:00:36;;;;;;;34.95;14.07;;;4.10;99.90;;;;;;7174379;32;20176;-77
2022/01/10 12:04:40;;;;;;;35.50;14.52;;;4.20;99.90;;;;;;7198766;32;20222;-78
2022/01/10 12:08:42;;;;;;;34.35;13.48;;;4.20;99.90;;;;;;7197204;32;20145;-76
2022/01/10 12:12:49;;;;;;;34.63;12.90;;;4.20;99.90;;;;;;7179463;32;20323;-84
2022/01/10 12:16:51;;;;;;;;;;;4.20;99.90;;;;;;7191245;32;20125;-77
2022/01/10 12:20:53;;;;;;;34.15;11.52;;;4.40;99.90;;;;;;7208771;32;20361;-78
2022/01/10 12:24:55;;;;;;;33.60;10.95;;;4.60;99.90;;;;;;7194972;32;20157;-77
2022/01/10 12:28:59;;;;;;;29.30;10.77;;;4.80;99.90;;;;;;7210272;32;20214;-78
2022/01/10 12:33:03;;;;;;;27.50;11.73;;;4.70;99.90;;;;;;7183451;32;20157;-82
2022/01/10 12:37:05;;;;;;;25.27;11.63;;;4.80;99.90;;;;;;7205061;32;20980;-78
2022/01/10 12:41:06;;;;;;;28.98;11.77;;;4.90;99.90;;;;;;7204678;32;20626;-78
2022/01/10 12:45:10;;;;;;;27.13;10.98;;;4.90;99.90;;;;;;7174527;32;20772;-78
2022/01/10 12:49:13;;;;;;;29.73;10.90;;;4.80;99.90;;;;;;7191120;32;20532;-79
2022/01/10 12:53:15;;;;;;;22.17;9.32;;;5.20;99.90;;;;;;7200792;32;20113;-83
2022/01/10 12:57:18;;;;;;;23.75;9.75;;;5.30;99.90;;;;;;7201537;32;20110;-77
2022/01/10 13:01:22;;;;;;;25.85;10.52;;;5.20;99.90;;;;;;7203042;32;20121;-78
2022/01/10 13:05:25;;;;;;;28.12;9.93;;;5.20;99.90;;;;;;7182955;32;20116;-77
2022/01/10 13:09:28;;;;;;;22.02;9.48;;;5.30;99.90;;;;;;7208085;32;20125;-77
2022/01/10 13:13:30;;;;;;;31.73;11.12;;;5.30;99.90;;;;;;7195249;32;20113;-78
2022/01/10 13:17:33;;;;;;;23.17;10.32;;;5.40;99.90;;;;;;7192231;32;20511;-78
2022/01/10 13:21:45;;;;;;;25.05;10.27;;;5.40;99.90;;;;;;7193651;32;20288;-77
2022/01/10 13:25:49;;;;;;;26.35;10.85;;;5.40;99.90;;;;;;7201520;32;20201;-75
2022/01/10 13:29:55;;;;;;;21.17;9.43;;;5.40;99.90;;;;;;7188892;32;20886;-79
2022/01/10 13:33:56;;;;;;;33.92;18.08;;;5.40;99.90;;;;;;7197916;32;20179;-77
2022/01/10 13:38:10;;;;;;;25.25;11.57;;;5.50;99.90;;;;;;7194721;32;20141;-77
2022/01/10 13:42:12;;;;;;;24.77;10.40;;;5.50;99.90;;;;;;7177833;32;20137;-79
2022/01/10 13:46:18;;;;;;;29.15;11.15;;;5.80;99.90;;;;;;7189245;32;20545;-82
2022/01/10 13:50:22;;;;;;;23.60;10.88;;;6.00;99.90;;;;;;7205072;32;20125;-77
2022/01/10 13:54:30;;;;;;;23.75;11.10;;;5.90;99.90;;;;;;7174963;32;20184;-77
2022/01/10 13:58:34;;;;;;;27.67;12.23;;;5.90;99.90;;;;;;7191818;32;20573;-76
2022/01/10 14:02:38;;;;;;;27.60;12.37;;;5.70;99.90;;;;;;7203766;32;20168;-78
2022/01/10 14:06:42;;;;;;;30.62;12.68;;;5.60;99.90;;;;;;7201749;33;20166;-78
2022/01/10 14:10:43;;;;;;;25.30;10.68;;;5.60;99.90;;;;;;7201735;33;20133;-78
2022/01/10 14:14:45;;;;;;;23.35;9.82;;;5.70;99.90;;;;;;7203632;32;20200;-78
2022/01/10 14:18:48;;;;;;;26.98;9.57;;;6.20;99.90;;;;;;7183882;33;20175;-79
2022/01/10 14:22:51;;;;;;;27.67;11.00;;;6.70;99.90;;;;;;7198519;33;20196;-78
2022/01/10 14:26:53;;;;;;;23.50;10.90;;;6.90;99.90;;;;;;7187546;33;20191;-78
2022/01/10 14:30:55;;;;;;;26.58;12.00;;;7.00;99.90;;;;;;7192054;33;20120;-78
2022/01/10 14:34:57;;;;;;;34.17;12.23;;;6.90;99.90;;;;;;7192016;33;20938;-78
2022/01/10 14:38:59;;;;;;;24.40;11.60;;;6.60;99.90;;;;;;7194137;33;20531;-78
2022/01/10 14:43:01;;;;;;;30.95;11.60;;;6.30;99.90;;;;;;7188399;33;20113;-78
2022/01/10 14:47:03;;;;;;;31.98;13.73;;;6.00;99.90;;;;;;7204906;33;20118;-83
2022/01/10 14:51:07;;;;;;;27.50;13.00;;;5.70;99.90;;;;;;7201810;33;20205;-78
2022/01/10 14:55:10;;;;;;;32.30;14.45;;;5.40;99.90;;;;;;7181319;33;20129;-78
2022/01/10 14:59:11;;;;;;;31.65;14.25;;;5.20;99.90;;;;;;7179736;33;20246;-78
2022/01/10 15:03:18;;;;;;;27.35;13.88;;;5.00;99.90;;;;;;7193447;32;20133;-79
2022/01/10 15:07:20;;;;;;;36.83;14.82;;;4.80;99.90;;;;;;7200564;32;20120;-85
2022/01/10 15:11:23;;;;;;;31.12;13.50;;;4.70;99.90;;;;;;7192212;32;20120;-78
2022/01/10 15:15:25;;;;;;;29.17;13.73;;;4.50;99.90;;;;;;7196322;32;20258;-79
2022/01/10 15:19:27;;;;;;;30.70;13.40;;;4.30;99.90;;;;;;7191149;32;20236;-78
2022/01/10 15:23:32;;;;;;;26.83;13.35;;;4.20;99.90;;;;;;7193004;32;20164;-78
2022/01/10 15:27:34;;;;;;;31.08;13.10;;;4.10;99.90;;;;;;7195495;32;20135;-83
2022/01/10 15:31:38;;;;;;;30.90;13.65;;;3.80;99.90;;;;;;7194460;32;20183;-78
2022/01/10 15:35:40;;;;;;;25.40;12.15;;;3.60;99.90;;;;;;7196032;32;20688;-78
2022/01/10 15:39:42;;;;;;;23.23;11.63;;;3.30;99.90;;;;;;7187584;32;20284;-78
2022/01/10 15:43:49;;;;;;;25.75;12.07;;;3.10;99.90;;;;;;7180112;32;20151;-77
2022/01/10 15:47:51;;;;;;;21.10;10.00;;;2.90;99.90;;;;;;7183171;32;20140;-76
2022/01/10 15:51:53;;;;;;;20.52;9.68;;;2.70;99.90;;;;;;7181256;32;20194;-77
2022/01/10 15:55:55;;;;;;;22.15;10.02;;;2.50;99.90;;;;;;7185867;32;20192;-77
2022/01/10 15:59:57;;;;;;;19.77;9.93;;;2.30;99.90;;;;;;7196333;32;20121;-77
2022/01/10 16:03:59;;;;;;;23.20;9.95;;;2.20;99.90;;;;;;7193799;32;20777;-77
2022/01/10 16:08:00;;;;;;;16.87;9.43;;;2.00;99.90;;;;;;7196514;32;20109;-75
2022/01/10 16:12:03;;;;;;;18.80;9.30;;;1.90;99.90;;;;;;7206073;32;20232;-75
2022/01/10 16:16:05;;;;;;;21.77;9.43;;;1.80;99.90;;;;;;7207623;32;20188;-76
2022/01/10 16:20:08;;;;;;;25.88;10.20;;;1.60;99.90;;;;;;7192614;32;20109;-75
2022/01/10 16:24:10;;;;;;;18.98;9.48;;;1.50;99.90;;;;;;7209034;32;20176;-75
2022/01/10 16:28:13;;;;;;;18.60;9.00;;;1.30;99.90;;;;;;7197365;32;20157;-76
2022/01/10 16:32:15;;;;;;;17.85;9.23;;;1.20;99.90;;;;;;7193914;32;20240;-76
2022/01/10 16:36:19;;;;;;;17.58;9.15;;;1.20;99.90;;;;;;7185086;32;20117;-76
2022/01/10 16:40:21;;;;;;;23.30;10.88;;;1.00;99.90;;;;;;7193868;32;20141;-76
2022/01/10 16:44:23;;;;;;;21.42;10.02;;;1.00;99.90;;;;;;7195735;32;20906;-76
2022/01/10 16:48:25;;;;;;;20.95;9.73;;;0.90;99.90;;;;;;7175653;32;20257;-76
2022/01/10 16:52:27;;;;;;;34.08;18.02;;;0.80;99.90;;;;;;7198735;32;20215;-77
2022/01/10 16:56:29;;;;;;;22.02;9.98;;;0.70;99.90;;;;;;7205150;32;20117;-76
2022/01/10 17:00:31;;;;;;;23.70;11.00;;;0.60;99.90;;;;;;7206973;32;20223;-76
2022/01/10 17:04:33;;;;;;;34.25;17.20;;;0.50;99.90;;;;;;7196140;32;20172;-77
2022/01/10 17:08:36;;;;;;;29.25;13.70;;;0.50;99.90;;;;;;7197599;32;20208;-76
2022/01/10 17:12:38;;;;;;;26.02;12.20;;;0.40;99.90;;;;;;7196852;32;20506;-76
2022/01/10 17:16:40;;;;;;;19.30;10.90;;;0.40;99.90;;;;;;7195622;32;20149;-76
2022/01/10 17:20:42;;;;;;;24.05;11.10;;;0.30;99.90;;;;;;7178006;32;20199;-76
2022/01/10 17:24:43;;;;;;;28.12;15.63;;;0.20;99.90;;;;;;7200435;32;20117;-78
2022/01/10 17:28:45;;;;;;;29.83;16.40;;;0.20;99.90;;;;;;7188367;32;20212;-76
2022/01/10 17:32:48;;;;;;;27.77;14.98;;;0.20;99.90;;;;;;7179568;32;20122;-77
2022/01/10 17:36:51;;;;;;;25.17;11.85;;;0.10;99.90;;;;;;7184958;32;20295;-76
2022/01/10 17:40:53;;;;;;;24.85;12.95;;;0.00;99.90;;;;;;7206783;32;20526;-76
2022/01/10 17:44:55;;;;;;;28.80;14.82;;;0.00;99.90;;;;;;7193660;32;20164;-77
2022/01/10 17:49:01;;;;;;;34.17;17.70;;;0.00;99.90;;;;;;7205603;32;20208;-77
2022/01/10 17:53:23;;;;;;;30.02;15.75;;;0.00;99.90;;;;;;7193822;32;20109;-77
2022/01/10 17:57:25;;;;;;;38.72;17.12;;;0.00;99.90;;;;;;7206167;32;20203;-78
2022/01/10 18:01:27;;;;;;;31.52;16.50;;;-0.10;99.90;;;;;;7182810;32;20187;-76
2022/01/10 18:05:29;;;;;;;38.28;18.42;;;-0.10;99.90;;;;;;7192800;33;20135;-76
2022/01/10 18:09:51;;;;;;;31.45;16.77;;;-0.10;99.90;;;;;;7190498;33;20787;-77
2022/01/10 18:13:53;;;;;;;33.83;17.05;;;-0.20;99.90;;;;;;7189603;33;20189;-77
2022/01/10 18:17:55;;;;;;;39.63;17.75;;;-0.20;99.90;;;;;;7190323;32;20562;-78
2022/01/10 18:21:57;;;;;;;35.03;18.83;;;-0.20;99.90;;;;;;7197475;33;20143;-77
2022/01/10 18:25:59;;;;;;;35.85;16.67;;;-0.20;99.90;;;;;;7193883;33;20137;-77
2022/01/10 18:30:03;;;;;;;35.08;16.65;;;-0.30;99.90;;;;;;7189589;33;20622;-77
2022/01/10 18:34:05;;;;;;;41.83;18.20;;;-0.30;99.90;;;;;;7200562;33;20266;-78
2022/01/10 18:38:08;;;;;;;35.72;17.58;;;-0.30;99.90;;;;;;7188765;32;20185;-78
2022/01/10 18:42:10;;;;;;;46.45;22.13;;;-0.40;99.90;;;;;;7204452;32;20125;-77
2022/01/10 18:46:13;;;;;;;60.90;28.65;;;-0.40;99.90;;;;;;7190752;32;20183;-77
2022/01/10 18:50:16;;;;;;;41.22;22.20;;;-0.40;99.90;;;;;;7192528;32;21727;-77
2022/01/10 18:54:18;;;;;;;58.47;25.95;;;-0.50;99.90;;;;;;7190875;32;20122;-77
2022/01/10 18:58:20;;;;;;;38.05;19.00;;;-0.30;99.90;;;;;;7188204;32;20118;-76
2022/01/10 19:02:23;;;;;;;53.15;24.15;;;-0.50;99.90;;;;;;7206617;32;20975;-77
2022/01/10 19:06:26;;;;;;;37.20;18.90;;;-0.40;99.90;;;;;;7203655;32;20259;-77
2022/01/10 19:10:28;;;;;;;30.33;14.27;;;-0.50;99.90;;;;;;7189360;32;20180;-78
2022/01/10 19:14:29;;;;;;;31.52;16.45;;;-0.50;99.90;;;;;;7192488;32;20642;-78
2022/01/10 19:18:31;;;;;;;37.85;18.30;;;-0.60;99.90;;;;;;7178980;32;20732;-77
2022/01/10 19:22:35;;;;;;;37.90;19.27;;;-0.60;99.90;;;;;;7195515;32;20175;-78
2022/01/10 19:26:39;;;;;;;38.33;18.05;;;-0.60;99.90;;;;;;7198750;32;20110;-78
2022/01/10 19:30:41;;;;;;;31.52;17.05;;;-0.60;99.90;;;;;;7207339;32;20129;-77
2022/01/10 19:34:43;;;;;;;37.95;17.52;;;-0.60;99.90;;;;;;7195161;32;20471;-77
2022/01/10 19:38:46;;;;;;;37.65;18.27;;;-0.60;99.90;;;;;;7189473;32;20924;-77
2022/01/10 19:42:48;;;;;;;38.65;18.20;;;-0.70;99.90;;;;;;7189991;32;20114;-77
2022/01/10 19:46:50;;;;;;;33.88;16.92;;;-0.60;99.90;;;;;;7207502;32;20133;-78
2022/01/10 19:50:52;;;;;;;40.47;17.58;;;-0.70;99.90;;;;;;7192318;32;20121;-78
2022/01/10 19:54:53;;;;;;;34.03;16.05;;;-0.70;99.90;;;;;;7182010;32;20113;-78
2022/01/10 19:59:05;;;;;;;32.95;16.12;;;-0.70;99.90;;;;;;7199973;32;20624;-78
2022/01/10 20:03:07;;;;;;;31.55;15.60;;;-0.70;99.90;;;;;;7201335;32;20504;-77
2022/01/10 20:07:08;;;;;;;30.50;15.48;;;-0.80;99.90;;;;;;7209740;32;20464;-78
2022/01/10 20:11:10;;;;;;;35.60;15.02;;;-0.80;99.90;;;;;;7207027;32;20155;-77
2022/01/10 20:15:12;;;;;;;32.85;15.82;;;-0.80;99.90;;;;;;7181916;32;20204;-78
2022/01/10 20:19:14;;;;;;;25.67;14.18;;;-0.80;99.90;;;;;;7192250;32;20139;-77
2022/01/10 20:23:20;;;;;;;31.40;15.82;;;-0.80;99.90;;;;;;7176066;32;20168;-77
2022/01/10 20:27:22;;;;;;;38.40;16.02;;;-0.80;99.90;;;;;;7192157;32;20143;-77
2022/01/10 20:31:25;;;;;;;30.65;16.30;;;-0.80;99.90;;;;;;7207536;32;20236;-76
2022/01/10 20:35:27;;;;;;;33.10;16.95;;;-0.80;99.90;;;;;;7199232;32;20113;-77
2022/01/10 20:39:29;;;;;;;29.27;16.00;;;-0.90;99.90;;;;;;7186518;32;20132;-77
2022/01/10 20:43:34;;;;;;;32.03;15.85;;;-0.90;99.90;;;;;;7206781;32;20122;-76
2022/01/10 20:47:36;;;;;;;30.83;14.40;;;-0.90;99.90;;;;;;7191649;32;20238;-78
2022/01/10 20:51:38;;;;;;;29.77;16.37;;;-0.90;99.90;;;;;;7203085;32;20121;-76